sensor_id;sensor_type;location;lat;lon;timestamp;temperature;humidity
40758;DHT22;26462;47.384;19.218;2024-02-21T00:01:18;7.10;99.90
40758;DHT22;26462;47.384;19.218;2024-02-21T00:03:48;7.00;99.90
40758;DHT22;26462;47.384;19.218;2024-02-21T00:06:16;7.00;99.90
40758;DHT22;26462;47.384;19.218;2024-02-21T00:08:44;7.00;99.90
40758;DHT22;26462;47.384;19.218;2024-02-21T00:11:13;7.00;99.90
40758;DHT22;26462;47.384;19.218;2024-02-21T00:13:41;6.90;99.90
40758;DHT22;26462;47.384;19.218;2024-02-21T00:16:11;6.90;99.90
40758;DHT22;26462;47.384;19.218;2024-02-21T00:18:40;6.90;99.90
40758;DHT22;26462;47.384;19.218;2024-02-21T00:21:09;6.90;99.90
40758;DHT22;26462;47.384;19.218;2024-02-21T00:23:41;6.90;99.90
40758;DHT22;26462;47.384;19.218;2024-02-21T00:26:12;7.00;99.90
40758;DHT22;26462;47.384;19.218;2024-02-21T00:28:41;7.00;99.90
40758;DHT22;26462;47.384;19.218;2024-02-21T00:31:10;7.00;99.90
40758;DHT22;26462;47.384;19.218;2024-02-21T00:33:39;7.00;99.90
40758;DHT22;26462;47.384;19.218;2024-02-21T00:36:07;7.00;99.90
40758;DHT22;26462;47.384;19.218;2024-02-21T00:38:36;7.00;99.90
40758;DHT22;26462;47.384;19.218;2024-02-21T00:41:05;7.00;99.90
40758;DHT22;26462;47.384;19.218;2024-02-21T00:43:35;7.00;99.90
40758;DHT22;26462;47.384;19.218;2024-02-21T00:46:05;7.00;99.90
40758;DHT22;26462;47.384;19.218;2024-02-21T00:48:34;7.00;99.90
40758;DHT22;26462;47.384;19.218;2024-02-21T00:51:03;7.10;99.90
40758;DHT22;26462;47.384;19.218;2024-02-21T00:53:31;7.10;99.90
40758;DHT22;26462;47.384;19.218;2024-02-21T00:56:00;7.10;99.90
40758;DHT22;26462;47.384;19.218;2024-02-21T00:58:28;7.10;99.90
40758;DHT22;26462;47.384;19.218;2024-02-21T01:00:57;7.10;99.90
40758;DHT22;26462;47.384;19.218;2024-02-21T01:03:25;7.10;99.90
40758;DHT22;26462;47.384;19.218;2024-02-21T01:05:54;7.10;99.90
40758;DHT22;26462;47.384;19.218;2024-02-21T01:08:23;7.10;99.90
40758;DHT22;26462;47.384;19.218;2024-02-21T01:10:52;7.10;99.90
40758;DHT22;26462;47.384;19.218;2024-02-21T01:13:20;7.10;99.90
40758;DHT22;26462;47.384;19.218;2024-02-21T01:15:49;7.10;99.90
40758;DHT22;26462;47.384;19.218;2024-02-21T01:18:18;7.00;99.90
40758;DHT22;26462;47.384;19.218;2024-02-21T01:20:46;7.10;99.90
40758;DHT22;26462;47.384;19.218;2024-02-21T01:23:16;7.00;99.90
40758;DHT22;26462;47.384;19.218;2024-02-21T01:25:44;7.00;99.90
40758;DHT22;26462;47.384;19.218;2024-02-21T01:28:13;7.00;99.90
40758;DHT22;26462;47.384;19.218;2024-02-21T01:30:41;7.00;99.90
40758;DHT22;26462;47.384;19.218;2024-02-21T01:33:10;7.10;99.90
40758;DHT22;26462;47.384;19.218;2024-02-21T01:35:40;7.10;99.90
40758;DHT22;26462;47.384;19.218;2024-02-21T01:38:09;7.10;99.90
40758;DHT22;26462;47.384;19.218;2024-02-21T01:40:39;7.10;99.90
40758;DHT22;26462;47.384;19.218;2024-02-21T01:43:15;7.00;99.90
40758;DHT22;26462;47.384;19.218;2024-02-21T01:45:43;7.00;99.90
40758;DHT22;26462;47.384;19.218;2024-02-21T01:48:12;7.00;99.90
40758;DHT22;26462;47.384;19.218;2024-02-21T01:50:42;7.00;99.90
40758;DHT22;26462;47.384;19.218;2024-02-21T01:53:10;7.00;99.90
40758;DHT22;26462;47.384;19.218;2024-02-21T01:55:46;7.00;99.90
40758;DHT22;26462;47.384;19.218;2024-02-21T01:58:17;7.00;99.90
40758;DHT22;26462;47.384;19.218;2024-02-21T02:00:48;7.00;99.90
40758;DHT22;26462;47.384;19.218;2024-02-21T02:03:20;7.00;99.90
40758;DHT22;26462;47.384;19.218;2024-02-21T02:05:49;7.00;99.90
40758;DHT22;26462;47.384;19.218;2024-02-21T02:08:18;7.00;99.90
40758;DHT22;26462;47.384;19.218;2024-02-21T02:10:54;7.00;99.90
40758;DHT22;26462;47.384;19.218;2024-02-21T02:13:23;7.00;99.90
40758;DHT22;26462;47.384;19.218;2024-02-21T02:15:51;7.00;99.90
40758;DHT22;26462;47.384;19.218;2024-02-21T02:18:20;6.90;99.90
40758;DHT22;26462;47.384;19.218;2024-02-21T02:20:48;6.90;99.90
40758;DHT22;26462;47.384;19.218;2024-02-21T02:23:22;6.90;99.90
40758;DHT22;26462;47.384;19.218;2024-02-21T02:25:50;6.90;99.90
40758;DHT22;26462;47.384;19.218;2024-02-21T02:28:24;6.90;99.90
40758;DHT22;26462;47.384;19.218;2024-02-21T02:30:57;6.90;99.90
40758;DHT22;26462;47.384;19.218;2024-02-21T02:33:25;6.90;99.90
40758;DHT22;26462;47.384;19.218;2024-02-21T02:35:55;6.90;99.90
40758;DHT22;26462;47.384;19.218;2024-02-21T02:38:26;6.90;99.90
40758;DHT22;26462;47.384;19.218;2024-02-21T02:40:55;6.80;99.90
40758;DHT22;26462;47.384;19.218;2024-02-21T02:43:24;6.80;99.90
40758;DHT22;26462;47.384;19.218;2024-02-21T02:45:52;6.90;99.90
40758;DHT22;26462;47.384;19.218;2024-02-21T02:48:22;6.90;99.90
40758;DHT22;26462;47.384;19.218;2024-02-21T02:50:50;6.80;99.90
40758;DHT22;26462;47.384;19.218;2024-02-21T02:53:19;6.80;99.90
40758;DHT22;26462;47.384;19.218;2024-02-21T02:55:50;6.80;99.90
40758;DHT22;26462;47.384;19.218;2024-02-21T02:58:19;6.80;99.90
40758;DHT22;26462;47.384;19.218;2024-02-21T03:00:50;6.80;99.90
40758;DHT22;26462;47.384;19.218;2024-02-21T03:03:18;6.80;99.90
40758;DHT22;26462;47.384;19.218;2024-02-21T03:05:49;6.70;99.90
40758;DHT22;26462;47.384;19.218;2024-02-21T03:08:18;6.80;99.90
40758;DHT22;26462;47.384;19.218;2024-02-21T03:10:46;6.80;99.90
40758;DHT22;26462;47.384;19.218;2024-02-21T03:13:16;6.70;99.90
40758;DHT22;26462;47.384;19.218;2024-02-21T03:15:45;6.80;99.90
40758;DHT22;26462;47.384;19.218;2024-02-21T03:18:14;6.80;99.90
40758;DHT22;26462;47.384;19.218;2024-02-21T03:20:42;6.90;99.90
40758;DHT22;26462;47.384;19.218;2024-02-21T03:23:12;6.90;99.90
40758;DHT22;26462;47.384;19.218;2024-02-21T03:25:43;6.90;99.90
40758;DHT22;26462;47.384;19.218;2024-02-21T03:28:12;6.90;99.90
40758;DHT22;26462;47.384;19.218;2024-02-21T03:30:41;6.80;99.90
40758;DHT22;26462;47.384;19.218;2024-02-21T03:33:10;6.90;99.90
40758;DHT22;26462;47.384;19.218;2024-02-21T03:35:39;6.90;99.90
40758;DHT22;26462;47.384;19.218;2024-02-21T03:38:07;6.90;99.90
40758;DHT22;26462;47.384;19.218;2024-02-21T03:40:37;6.80;99.90
40758;DHT22;26462;47.384;19.218;2024-02-21T03:43:05;6.80;99.90
40758;DHT22;26462;47.384;19.218;2024-02-21T03:45:35;6.80;99.90
40758;DHT22;26462;47.384;19.218;2024-02-21T03:48:05;6.80;99.90
40758;DHT22;26462;47.384;19.218;2024-02-21T03:53:36;6.80;99.90
40758;DHT22;26462;47.384;19.218;2024-02-21T03:56:07;6.80;99.90
40758;DHT22;26462;47.384;19.218;2024-02-21T03:58:36;6.80;99.90
40758;DHT22;26462;47.384;19.218;2024-02-21T04:01:07;6.80;99.90
40758;DHT22;26462;47.384;19.218;2024-02-21T04:03:36;6.80;99.90
40758;DHT22;26462;47.384;19.218;2024-02-21T04:06:06;6.70;99.90
40758;DHT22;26462;47.384;19.218;2024-02-21T04:08:35;6.70;99.90
40758;DHT22;26462;47.384;19.218;2024-02-21T04:11:05;6.70;99.90
40758;DHT22;26462;47.384;19.218;2024-02-21T04:13:34;6.70;99.90
40758;DHT22;26462;47.384;19.218;2024-02-21T04:16:03;6.70;99.90
40758;DHT22;26462;47.384;19.218;2024-02-21T04:18:33;6.60;99.90
40758;DHT22;26462;47.384;19.218;2024-02-21T04:21:03;6.60;99.90
40758;DHT22;26462;47.384;19.218;2024-02-21T04:23:54;6.60;99.90
40758;DHT22;26462;47.384;19.218;2024-02-21T04:26:23;6.60;99.90
40758;DHT22;26462;47.384;19.218;2024-02-21T04:28:51;6.50;99.90
40758;DHT22;26462;47.384;19.218;2024-02-21T04:31:20;6.50;99.90
40758;DHT22;26462;47.384;19.218;2024-02-21T04:33:49;6.40;99.90
40758;DHT22;26462;47.384;19.218;2024-02-21T04:36:19;6.40;99.90
40758;DHT22;26462;47.384;19.218;2024-02-21T04:38:47;6.30;99.90
40758;DHT22;26462;47.384;19.218;2024-02-21T04:41:15;6.30;99.90
40758;DHT22;26462;47.384;19.218;2024-02-21T04:43:45;6.20;99.90
40758;DHT22;26462;47.384;19.218;2024-02-21T04:46:16;6.20;99.90
40758;DHT22;26462;47.384;19.218;2024-02-21T04:48:44;6.10;99.90
40758;DHT22;26462;47.384;19.218;2024-02-21T04:51:13;6.00;99.90
40758;DHT22;26462;47.384;19.218;2024-02-21T04:53:43;6.10;99.90
40758;DHT22;26462;47.384;19.218;2024-02-21T04:56:12;6.00;99.90
40758;DHT22;26462;47.384;19.218;2024-02-21T04:58:41;6.00;99.90
40758;DHT22;26462;47.384;19.218;2024-02-21T05:01:09;6.00;99.90
40758;DHT22;26462;47.384;19.218;2024-02-21T05:03:38;5.90;99.90
40758;DHT22;26462;47.384;19.218;2024-02-21T05:06:06;5.90;99.90
40758;DHT22;26462;47.384;19.218;2024-02-21T05:08:36;5.90;99.90
40758;DHT22;26462;47.384;19.218;2024-02-21T05:11:06;5.90;99.90
40758;DHT22;26462;47.384;19.218;2024-02-21T05:13:34;5.80;99.90
40758;DHT22;26462;47.384;19.218;2024-02-21T05:16:04;5.80;99.90
40758;DHT22;26462;47.384;19.218;2024-02-21T05:18:33;5.80;99.90
40758;DHT22;26462;47.384;19.218;2024-02-21T05:21:02;5.70;99.90
40758;DHT22;26462;47.384;19.218;2024-02-21T05:23:30;5.70;99.90
40758;DHT22;26462;47.384;19.218;2024-02-21T05:25:59;5.60;99.90
40758;DHT22;26462;47.384;19.218;2024-02-21T05:28:30;5.60;99.90
40758;DHT22;26462;47.384;19.218;2024-02-21T05:30:58;5.60;99.90
40758;DHT22;26462;47.384;19.218;2024-02-21T05:33:27;5.60;99.90
40758;DHT22;26462;47.384;19.218;2024-02-21T05:35:56;5.70;99.90
40758;DHT22;26462;47.384;19.218;2024-02-21T05:38:24;5.60;99.90
40758;DHT22;26462;47.384;19.218;2024-02-21T05:40:52;5.60;99.90
40758;DHT22;26462;47.384;19.218;2024-02-21T05:43:22;5.70;99.90
40758;DHT22;26462;47.384;19.218;2024-02-21T05:45:51;5.60;99.90
40758;DHT22;26462;47.384;19.218;2024-02-21T05:48:19;5.60;99.90
40758;DHT22;26462;47.384;19.218;2024-02-21T05:50:48;5.60;99.90
40758;DHT22;26462;47.384;19.218;2024-02-21T05:53:17;5.60;99.90
40758;DHT22;26462;47.384;19.218;2024-02-21T05:55:46;5.60;99.90
40758;DHT22;26462;47.384;19.218;2024-02-21T05:58:14;5.60;99.90
40758;DHT22;26462;47.384;19.218;2024-02-21T06:00:43;5.60;99.90
40758;DHT22;26462;47.384;19.218;2024-02-21T06:03:12;5.60;99.90
40758;DHT22;26462;47.384;19.218;2024-02-21T06:05:41;5.50;99.90
40758;DHT22;26462;47.384;19.218;2024-02-21T06:08:09;5.60;99.90
40758;DHT22;26462;47.384;19.218;2024-02-21T06:10:37;5.50;99.90
40758;DHT22;26462;47.384;19.218;2024-02-21T06:13:05;5.60;99.90
40758;DHT22;26462;47.384;19.218;2024-02-21T06:15:33;5.60;99.90
40758;DHT22;26462;47.384;19.218;2024-02-21T06:18:02;5.50;99.90
40758;DHT22;26462;47.384;19.218;2024-02-21T06:20:31;5.50;99.90
40758;DHT22;26462;47.384;19.218;2024-02-21T06:23:00;5.50;99.90
40758;DHT22;26462;47.384;19.218;2024-02-21T06:25:28;5.60;99.90
40758;DHT22;26462;47.384;19.218;2024-02-21T06:27:56;5.60;99.90
40758;DHT22;26462;47.384;19.218;2024-02-21T06:30:24;5.60;99.90
40758;DHT22;26462;47.384;19.218;2024-02-21T06:32:53;5.70;99.90
40758;DHT22;26462;47.384;19.218;2024-02-21T06:35:23;5.70;99.90
40758;DHT22;26462;47.384;19.218;2024-02-21T06:37:53;5.70;99.90
40758;DHT22;26462;47.384;19.218;2024-02-21T06:40:22;5.80;99.90
40758;DHT22;26462;47.384;19.218;2024-02-21T06:42:50;5.90;99.90
40758;DHT22;26462;47.384;19.218;2024-02-21T06:45:19;5.90;99.90
40758;DHT22;26462;47.384;19.218;2024-02-21T06:47:48;5.90;99.90
40758;DHT22;26462;47.384;19.218;2024-02-21T06:50:20;6.00;99.90
40758;DHT22;26462;47.384;19.218;2024-02-21T06:52:48;6.00;99.90
40758;DHT22;26462;47.384;19.218;2024-02-21T06:55:20;6.10;99.90
40758;DHT22;26462;47.384;19.218;2024-02-21T06:57:50;6.10;99.90
40758;DHT22;26462;47.384;19.218;2024-02-21T07:00:19;6.20;99.90
40758;DHT22;26462;47.384;19.218;2024-02-21T07:02:51;6.30;99.90
40758;DHT22;26462;47.384;19.218;2024-02-21T07:05:19;6.30;99.90
40758;DHT22;26462;47.384;19.218;2024-02-21T07:07:47;6.30;99.90
40758;DHT22;26462;47.384;19.218;2024-02-21T07:10:18;6.40;99.90
40758;DHT22;26462;47.384;19.218;2024-02-21T07:12:46;6.50;99.90
40758;DHT22;26462;47.384;19.218;2024-02-21T07:15:15;6.60;99.90
40758;DHT22;26462;47.384;19.218;2024-02-21T07:17:44;6.70;99.90
40758;DHT22;26462;47.384;19.218;2024-02-21T07:20:12;6.80;99.90
40758;DHT22;26462;47.384;19.218;2024-02-21T07:22:41;6.80;99.90
40758;DHT22;26462;47.384;19.218;2024-02-21T07:25:09;6.90;99.90
40758;DHT22;26462;47.384;19.218;2024-02-21T07:27:38;7.00;99.90
40758;DHT22;26462;47.384;19.218;2024-02-21T07:30:08;7.00;99.90
40758;DHT22;26462;47.384;19.218;2024-02-21T07:32:39;7.10;99.90
40758;DHT22;26462;47.384;19.218;2024-02-21T07:35:08;7.20;99.90
40758;DHT22;26462;47.384;19.218;2024-02-21T07:37:37;7.30;99.90
40758;DHT22;26462;47.384;19.218;2024-02-21T07:40:11;7.40;99.90
40758;DHT22;26462;47.384;19.218;2024-02-21T07:42:42;7.40;99.90
40758;DHT22;26462;47.384;19.218;2024-02-21T07:45:18;7.50;99.90
40758;DHT22;26462;47.384;19.218;2024-02-21T07:47:50;7.60;99.90
40758;DHT22;26462;47.384;19.218;2024-02-21T07:50:20;7.60;99.90
40758;DHT22;26462;47.384;19.218;2024-02-21T07:52:49;7.70;99.90
40758;DHT22;26462;47.384;19.218;2024-02-21T07:55:18;7.70;99.90
40758;DHT22;26462;47.384;19.218;2024-02-21T07:57:49;7.80;99.90
40758;DHT22;26462;47.384;19.218;2024-02-21T08:00:18;6.90;99.90
40758;DHT22;26462;47.384;19.218;2024-02-21T08:02:48;7.80;99.90
40758;DHT22;26462;47.384;19.218;2024-02-21T08:05:17;8.00;99.90
40758;DHT22;26462;47.384;19.218;2024-02-21T08:07:45;8.40;99.90
40758;DHT22;26462;47.384;19.218;2024-02-21T08:10:15;8.00;99.90
40758;DHT22;26462;47.384;19.218;2024-02-21T08:12:44;8.10;99.90
40758;DHT22;26462;47.384;19.218;2024-02-21T08:15:14;8.10;99.90
40758;DHT22;26462;47.384;19.218;2024-02-21T08:17:43;8.30;99.90
40758;DHT22;26462;47.384;19.218;2024-02-21T08:20:12;8.30;99.90
40758;DHT22;26462;47.384;19.218;2024-02-21T08:22:40;8.30;99.90
40758;DHT22;26462;47.384;19.218;2024-02-21T08:25:09;8.40;99.90
40758;DHT22;26462;47.384;19.218;2024-02-21T08:27:37;8.50;99.90
40758;DHT22;26462;47.384;19.218;2024-02-21T08:30:06;8.50;99.90
40758;DHT22;26462;47.384;19.218;2024-02-21T08:32:36;8.50;99.90
40758;DHT22;26462;47.384;19.218;2024-02-21T08:35:04;8.70;99.90
40758;DHT22;26462;47.384;19.218;2024-02-21T08:37:33;8.80;99.90
40758;DHT22;26462;47.384;19.218;2024-02-21T08:40:01;8.80;99.90
40758;DHT22;26462;47.384;19.218;2024-02-21T08:42:36;9.00;99.90
40758;DHT22;26462;47.384;19.218;2024-02-21T08:45:05;9.00;99.90
40758;DHT22;26462;47.384;19.218;2024-02-21T08:47:35;9.10;99.90
40758;DHT22;26462;47.384;19.218;2024-02-21T08:50:04;9.10;99.90
40758;DHT22;26462;47.384;19.218;2024-02-21T08:52:45;9.20;99.90
40758;DHT22;26462;47.384;19.218;2024-02-21T08:55:13;9.30;99.90
40758;DHT22;26462;47.384;19.218;2024-02-21T08:57:41;9.20;99.90
40758;DHT22;26462;47.384;19.218;2024-02-21T09:00:10;9.40;99.90
40758;DHT22;26462;47.384;19.218;2024-02-21T09:02:41;9.20;99.90
40758;DHT22;26462;47.384;19.218;2024-02-21T09:05:10;9.30;99.90
40758;DHT22;26462;47.384;19.218;2024-02-21T09:07:39;9.60;99.90
40758;DHT22;26462;47.384;19.218;2024-02-21T09:10:08;9.80;99.90
40758;DHT22;26462;47.384;19.218;2024-02-21T09:12:36;9.80;99.90
40758;DHT22;26462;47.384;19.218;2024-02-21T09:15:04;9.50;99.90
40758;DHT22;26462;47.384;19.218;2024-02-21T09:17:33;9.40;99.90
40758;DHT22;26462;47.384;19.218;2024-02-21T09:20:03;9.30;99.90
40758;DHT22;26462;47.384;19.218;2024-02-21T09:22:31;9.40;99.90
40758;DHT22;26462;47.384;19.218;2024-02-21T09:25:01;9.50;99.90
40758;DHT22;26462;47.384;19.218;2024-02-21T09:27:30;9.60;99.90
40758;DHT22;26462;47.384;19.218;2024-02-21T09:29:58;9.60;99.90
40758;DHT22;26462;47.384;19.218;2024-02-21T09:32:27;9.50;99.90
40758;DHT22;26462;47.384;19.218;2024-02-21T09:34:55;9.70;99.90
40758;DHT22;26462;47.384;19.218;2024-02-21T09:37:30;10.00;99.90
40758;DHT22;26462;47.384;19.218;2024-02-21T09:39:58;9.90;99.90
40758;DHT22;26462;47.384;19.218;2024-02-21T09:42:27;10.10;99.90
40758;DHT22;26462;47.384;19.218;2024-02-21T09:44:58;9.80;99.90
40758;DHT22;26462;47.384;19.218;2024-02-21T09:47:28;9.50;99.90
40758;DHT22;26462;47.384;19.218;2024-02-21T09:49:58;9.50;99.90
40758;DHT22;26462;47.384;19.218;2024-02-21T09:52:29;9.70;99.90
40758;DHT22;26462;47.384;19.218;2024-02-21T09:54:58;10.00;99.90
40758;DHT22;26462;47.384;19.218;2024-02-21T09:57:26;10.50;99.90
40758;DHT22;26462;47.384;19.218;2024-02-21T09:59:55;10.50;99.90
40758;DHT22;26462;47.384;19.218;2024-02-21T10:02:25;10.80;99.90
40758;DHT22;26462;47.384;19.218;2024-02-21T10:04:54;10.80;99.90
40758;DHT22;26462;47.384;19.218;2024-02-21T10:07:22;10.90;99.90
40758;DHT22;26462;47.384;19.218;2024-02-21T10:10:01;11.00;99.90
40758;DHT22;26462;47.384;19.218;2024-02-21T10:12:30;10.70;99.90
40758;DHT22;26462;47.384;19.218;2024-02-21T10:15:01;10.60;99.90
40758;DHT22;26462;47.384;19.218;2024-02-21T10:17:29;10.70;99.90
40758;DHT22;26462;47.384;19.218;2024-02-21T10:20:06;11.10;99.90
40758;DHT22;26462;47.384;19.218;2024-02-21T10:22:35;10.90;99.90
40758;DHT22;26462;47.384;19.218;2024-02-21T10:25:11;10.60;99.90
40758;DHT22;26462;47.384;19.218;2024-02-21T10:27:40;10.90;99.90
40758;DHT22;26462;47.384;19.218;2024-02-21T10:30:12;11.10;99.90
40758;DHT22;26462;47.384;19.218;2024-02-21T10:32:48;11.30;99.90
40758;DHT22;26462;47.384;19.218;2024-02-21T10:35:25;11.30;99.80
40758;DHT22;26462;47.384;19.218;2024-02-21T10:37:53;11.30;99.90
40758;DHT22;26462;47.384;19.218;2024-02-21T10:40:25;11.30;99.60
40758;DHT22;26462;47.384;19.218;2024-02-21T10:42:56;11.10;98.70
40758;DHT22;26462;47.384;19.218;2024-02-21T10:45:28;11.30;98.50
40758;DHT22;26462;47.384;19.218;2024-02-21T10:47:59;11.50;98.30
40758;DHT22;26462;47.384;19.218;2024-02-21T10:50:29;11.40;98.00
40758;DHT22;26462;47.384;19.218;2024-02-21T10:53:04;11.00;98.80
40758;DHT22;26462;47.384;19.218;2024-02-21T10:55:36;11.00;99.80
40758;DHT22;26462;47.384;19.218;2024-02-21T10:58:06;10.80;99.50
40758;DHT22;26462;47.384;19.218;2024-02-21T11:00:34;10.70;99.90
40758;DHT22;26462;47.384;19.218;2024-02-21T11:03:03;10.90;99.90
40758;DHT22;26462;47.384;19.218;2024-02-21T11:05:32;10.90;99.90
40758;DHT22;26462;47.384;19.218;2024-02-21T11:08:01;10.90;99.90
40758;DHT22;26462;47.384;19.218;2024-02-21T11:10:30;10.80;99.90
40758;DHT22;26462;47.384;19.218;2024-02-21T11:13:06;10.70;99.90
40758;DHT22;26462;47.384;19.218;2024-02-21T11:15:35;10.60;99.90
40758;DHT22;26462;47.384;19.218;2024-02-21T11:18:04;10.60;99.90
40758;DHT22;26462;47.384;19.218;2024-02-21T11:20:33;10.60;99.90
40758;DHT22;26462;47.384;19.218;2024-02-21T11:23:06;10.60;99.90
40758;DHT22;26462;47.384;19.218;2024-02-21T11:25:34;10.60;99.90
40758;DHT22;26462;47.384;19.218;2024-02-21T11:28:03;10.70;99.90
40758;DHT22;26462;47.384;19.218;2024-02-21T11:30:37;10.80;99.90
40758;DHT22;26462;47.384;19.218;2024-02-21T11:33:06;10.80;99.90
40758;DHT22;26462;47.384;19.218;2024-02-21T11:35:35;10.80;99.90
40758;DHT22;26462;47.384;19.218;2024-02-21T11:38:07;10.90;99.90
40758;DHT22;26462;47.384;19.218;2024-02-21T11:40:38;11.00;99.90
40758;DHT22;26462;47.384;19.218;2024-02-21T11:43:06;11.00;99.90
40758;DHT22;26462;47.384;19.218;2024-02-21T11:45:34;11.10;99.40
40758;DHT22;26462;47.384;19.218;2024-02-21T11:48:05;11.10;99.90
40758;DHT22;26462;47.384;19.218;2024-02-21T11:50:34;11.20;99.60
40758;DHT22;26462;47.384;19.218;2024-02-21T11:53:03;11.30;99.60
40758;DHT22;26462;47.384;19.218;2024-02-21T11:55:32;11.20;98.90
40758;DHT22;26462;47.384;19.218;2024-02-21T11:58:01;11.30;99.60
40758;DHT22;26462;47.384;19.218;2024-02-21T12:00:32;11.40;98.60
40758;DHT22;26462;47.384;19.218;2024-02-21T12:03:00;11.40;98.00
40758;DHT22;26462;47.384;19.218;2024-02-21T12:05:31;11.40;98.10
40758;DHT22;26462;47.384;19.218;2024-02-21T12:07:59;11.20;98.00
40758;DHT22;26462;47.384;19.218;2024-02-21T12:10:28;11.10;98.10
40758;DHT22;26462;47.384;19.218;2024-02-21T12:13:08;11.00;98.60
40758;DHT22;26462;47.384;19.218;2024-02-21T12:15:38;10.90;98.90
40758;DHT22;26462;47.384;19.218;2024-02-21T12:18:06;10.80;99.30
40758;DHT22;26462;47.384;19.218;2024-02-21T12:20:36;10.80;99.20
40758;DHT22;26462;47.384;19.218;2024-02-21T12:23:08;10.80;99.00
40758;DHT22;26462;47.384;19.218;2024-02-21T12:25:36;10.80;99.20
40758;DHT22;26462;47.384;19.218;2024-02-21T12:28:07;10.80;99.50
40758;DHT22;26462;47.384;19.218;2024-02-21T12:30:36;10.90;99.90
40758;DHT22;26462;47.384;19.218;2024-02-21T12:33:06;10.90;99.30
40758;DHT22;26462;47.384;19.218;2024-02-21T12:35:35;11.10;99.50
40758;DHT22;26462;47.384;19.218;2024-02-21T12:38:05;11.20;98.80
40758;DHT22;26462;47.384;19.218;2024-02-21T12:40:34;11.20;99.20
40758;DHT22;26462;47.384;19.218;2024-02-21T12:43:02;11.20;98.70
40758;DHT22;26462;47.384;19.218;2024-02-21T12:45:32;11.10;97.70
40758;DHT22;26462;47.384;19.218;2024-02-21T12:48:02;11.10;97.70
40758;DHT22;26462;47.384;19.218;2024-02-21T12:50:32;11.10;97.50
40758;DHT22;26462;47.384;19.218;2024-02-21T12:53:06;11.10;97.90
40758;DHT22;26462;47.384;19.218;2024-02-21T12:55:51;11.10;97.20
40758;DHT22;26462;47.384;19.218;2024-02-21T12:58:22;11.20;96.70
40758;DHT22;26462;47.384;19.218;2024-02-21T13:00:50;11.30;97.00
40758;DHT22;26462;47.384;19.218;2024-02-21T13:03:18;11.20;95.30
40758;DHT22;26462;47.384;19.218;2024-02-21T13:05:48;11.30;95.80
40758;DHT22;26462;47.384;19.218;2024-02-21T13:08:18;11.30;96.80
40758;DHT22;26462;47.384;19.218;2024-02-21T13:10:48;11.30;96.50
40758;DHT22;26462;47.384;19.218;2024-02-21T13:13:19;11.20;95.90
40758;DHT22;26462;47.384;19.218;2024-02-21T13:15:48;11.30;96.90
40758;DHT22;26462;47.384;19.218;2024-02-21T13:18:16;11.20;95.90
40758;DHT22;26462;47.384;19.218;2024-02-21T13:20:44;11.20;96.50
40758;DHT22;26462;47.384;19.218;2024-02-21T13:23:13;11.20;97.20
40758;DHT22;26462;47.384;19.218;2024-02-21T13:25:43;11.10;97.10
40758;DHT22;26462;47.384;19.218;2024-02-21T13:28:12;11.10;96.60
40758;DHT22;26462;47.384;19.218;2024-02-21T13:30:43;11.00;97.00
40758;DHT22;26462;47.384;19.218;2024-02-21T13:33:14;11.00;97.20
40758;DHT22;26462;47.384;19.218;2024-02-21T13:35:44;11.00;97.30
40758;DHT22;26462;47.384;19.218;2024-02-21T13:38:13;11.00;97.40
40758;DHT22;26462;47.384;19.218;2024-02-21T13:40:43;11.00;96.70
40758;DHT22;26462;47.384;19.218;2024-02-21T13:43:12;11.00;97.30
40758;DHT22;26462;47.384;19.218;2024-02-21T13:45:45;11.00;97.00
40758;DHT22;26462;47.384;19.218;2024-02-21T13:48:22;11.00;97.10
40758;DHT22;26462;47.384;19.218;2024-02-21T13:50:52;11.10;96.90
40758;DHT22;26462;47.384;19.218;2024-02-21T13:53:20;11.40;97.40
40758;DHT22;26462;47.384;19.218;2024-02-21T13:55:51;11.60;96.50
40758;DHT22;26462;47.384;19.218;2024-02-21T13:58:19;11.90;96.10
40758;DHT22;26462;47.384;19.218;2024-02-21T14:00:49;12.00;94.40
40758;DHT22;26462;47.384;19.218;2024-02-21T14:03:17;12.10;94.50
40758;DHT22;26462;47.384;19.218;2024-02-21T14:05:47;12.10;93.50
40758;DHT22;26462;47.384;19.218;2024-02-21T14:08:16;12.00;92.50
40758;DHT22;26462;47.384;19.218;2024-02-21T14:10:44;12.10;91.80
40758;DHT22;26462;47.384;19.218;2024-02-21T14:13:14;11.90;90.90
40758;DHT22;26462;47.384;19.218;2024-02-21T14:18:22;11.80;91.40
40758;DHT22;26462;47.384;19.218;2024-02-21T14:20:52;11.60;91.90
40758;DHT22;26462;47.384;19.218;2024-02-21T14:23:20;11.60;92.50
40758;DHT22;26462;47.384;19.218;2024-02-21T14:25:49;11.50;92.70
40758;DHT22;26462;47.384;19.218;2024-02-21T14:28:17;11.40;92.70
40758;DHT22;26462;47.384;19.218;2024-02-21T14:30:48;11.40;93.00
40758;DHT22;26462;47.384;19.218;2024-02-21T14:33:22;11.40;93.40
40758;DHT22;26462;47.384;19.218;2024-02-21T14:35:51;11.30;93.20
40758;DHT22;26462;47.384;19.218;2024-02-21T14:38:20;11.20;93.40
40758;DHT22;26462;47.384;19.218;2024-02-21T14:40:49;11.20;93.30
40758;DHT22;26462;47.384;19.218;2024-02-21T14:43:18;11.20;93.70
40758;DHT22;26462;47.384;19.218;2024-02-21T14:45:49;11.20;93.80
40758;DHT22;26462;47.384;19.218;2024-02-21T14:48:17;11.10;94.10
40758;DHT22;26462;47.384;19.218;2024-02-21T14:50:49;11.10;93.80
40758;DHT22;26462;47.384;19.218;2024-02-21T14:53:17;11.10;93.90
40758;DHT22;26462;47.384;19.218;2024-02-21T14:55:46;11.10;94.10
40758;DHT22;26462;47.384;19.218;2024-02-21T14:58:17;11.10;94.40
40758;DHT22;26462;47.384;19.218;2024-02-21T15:00:48;11.10;94.20
40758;DHT22;26462;47.384;19.218;2024-02-21T15:03:18;11.10;94.30
40758;DHT22;26462;47.384;19.218;2024-02-21T15:05:49;11.10;94.30
40758;DHT22;26462;47.384;19.218;2024-02-21T15:08:17;11.10;93.90
40758;DHT22;26462;47.384;19.218;2024-02-21T15:10:46;11.10;93.70
40758;DHT22;26462;47.384;19.218;2024-02-21T15:13:17;11.10;94.80
40758;DHT22;26462;47.384;19.218;2024-02-21T15:15:47;11.00;94.10
40758;DHT22;26462;47.384;19.218;2024-02-21T15:18:16;11.00;94.10
40758;DHT22;26462;47.384;19.218;2024-02-21T15:20:45;11.00;93.70
40758;DHT22;26462;47.384;19.218;2024-02-21T15:23:15;10.90;93.80
40758;DHT22;26462;47.384;19.218;2024-02-21T15:25:44;10.90;93.60
40758;DHT22;26462;47.384;19.218;2024-02-21T15:28:13;10.90;94.00
40758;DHT22;26462;47.384;19.218;2024-02-21T15:30:42;10.80;94.20
40758;DHT22;26462;47.384;19.218;2024-02-21T15:33:10;10.70;93.70
40758;DHT22;26462;47.384;19.218;2024-02-21T15:35:38;10.80;93.80
40758;DHT22;26462;47.384;19.218;2024-02-21T15:38:09;10.70;94.30
40758;DHT22;26462;47.384;19.218;2024-02-21T15:40:42;10.70;94.60
40758;DHT22;26462;47.384;19.218;2024-02-21T15:43:12;10.60;94.70
40758;DHT22;26462;47.384;19.218;2024-02-21T15:45:40;10.60;94.60